createdAt,value
2023-03-13T00:01:32.640Z,83.80
2023-03-13T00:04:18.376Z,84.30
2023-03-13T00:07:04.929Z,84.20
2023-03-13T00:09:50.294Z,84.40
2023-03-13T00:12:35.712Z,84.50
2023-03-13T00:15:21.298Z,83.30
2023-03-13T00:18:06.900Z,83.90
2023-03-13T00:21:02.154Z,83.90
2023-03-13T00:23:48.592Z,84.00
2023-03-13T00:26:34.073Z,84.00
2023-03-13T00:29:19.805Z,84.30
2023-03-13T00:32:05.793Z,84.30
2023-03-13T00:34:51.270Z,85.00
2023-03-13T00:37:36.890Z,84.00
2023-03-13T00:40:22.452Z,83.90
2023-03-13T00:43:08.352Z,84.10
2023-03-13T00:45:53.902Z,83.90
2023-03-13T00:48:39.699Z,84.00
2023-03-13T00:51:27.358Z,82.90
2023-03-13T00:54:12.904Z,83.40
2023-03-13T00:56:58.506Z,83.50
2023-03-13T00:59:44.314Z,83.50
2023-03-13T01:02:29.963Z,83.80
2023-03-13T01:05:16.294Z,83.80
2023-03-13T01:08:01.905Z,83.80
2023-03-13T01:10:47.500Z,83.70
2023-03-13T01:13:34.230Z,84.30
2023-03-13T01:16:21.426Z,84.20
2023-03-13T01:19:13.036Z,83.40
2023-03-13T01:21:59.243Z,84.10
2023-03-13T01:24:46.194Z,84.20
2023-03-13T01:27:31.966Z,84.50
2023-03-13T01:30:17.706Z,86.50
2023-03-13T01:33:03.395Z,88.20
2023-03-13T01:35:49.170Z,89.30
2023-03-13T01:38:35.124Z,90.50
2023-03-13T01:41:22.042Z,91.40
2023-03-13T01:44:24.253Z,92.00
2023-03-13T01:47:11.145Z,92.70
2023-03-13T01:50:20.094Z,93.50
2023-03-13T01:53:23.467Z,94.20
2023-03-13T01:56:14.868Z,95.60
2023-03-13T01:59:00.830Z,95.60
2023-03-13T02:01:48.992Z,96.40
2023-03-13T02:04:38.762Z,96.80
2023-03-13T02:07:30.956Z,97.00
2023-03-13T02:10:18.127Z,97.20
2023-03-13T02:13:03.824Z,96.80
2023-03-13T02:15:49.792Z,96.60
2023-03-13T02:18:37.930Z,96.20
2023-03-13T02:21:43.822Z,95.70
2023-03-13T02:24:36.663Z,95.10
2023-03-13T02:27:22.572Z,94.70
2023-03-13T02:30:10.012Z,94.50
2023-03-13T02:32:56.334Z,94.60
2023-03-13T02:35:44.296Z,94.30
2023-03-13T02:38:35.254Z,94.40
2023-03-13T02:41:23.049Z,94.00
2023-03-13T02:44:09.495Z,94.50
2023-03-13T02:46:55.097Z,94.30
2023-03-13T02:49:44.716Z,94.70
2023-03-13T02:52:38.027Z,94.80
2023-03-13T02:55:31.017Z,95.10
2023-03-13T02:58:16.648Z,94.80
2023-03-13T03:01:07.680Z,94.70
2023-03-13T03:03:56.315Z,94.80
2023-03-13T03:06:43.187Z,94.90
2023-03-13T03:09:28.887Z,95.20
2023-03-13T03:12:18.492Z,95.60
2023-03-13T03:15:05.015Z,95.50
2023-03-13T03:17:51.963Z,95.60
2023-03-13T03:20:37.520Z,96.00
2023-03-13T03:23:22.990Z,96.20
2023-03-13T03:26:09.502Z,96.70
2023-03-13T03:28:55.195Z,96.20
2023-03-13T03:31:41.674Z,97.60
2023-03-13T03:34:28.389Z,98.20
2023-03-13T03:37:14.940Z,98.40
2023-03-13T03:40:00.442Z,99.10
2023-03-13T03:42:48.733Z,99.20
2023-03-13T03:45:34.056Z,99.70
2023-03-13T03:48:20.594Z,99.90
2023-03-13T03:51:07.603Z,99.90
2023-03-13T03:53:56.633Z,99.90
2023-03-13T03:56:42.169Z,99.90
2023-03-13T03:59:29.938Z,99.90
2023-03-13T04:02:17.767Z,99.90
2023-03-13T04:05:04.938Z,99.90
2023-03-13T04:07:55.059Z,99.90
2023-03-13T04:10:40.730Z,99.90
2023-03-13T04:13:26.267Z,99.90
2023-03-13T04:16:12.398Z,99.90
2023-03-13T04:18:59.475Z,99.90
2023-03-13T04:21:46.071Z,99.90
2023-03-13T04:24:35.509Z,99.90
2023-03-13T04:27:21.157Z,99.90
2023-03-13T04:30:09.410Z,99.90
2023-03-13T04:32:55.237Z,99.90
2023-03-13T04:36:07.609Z,99.90
2023-03-13T04:39:18.610Z,99.90
2023-03-13T04:42:07.287Z,99.90
2023-03-13T04:45:19.007Z,99.90
2023-03-13T04:48:23.440Z,99.90
2023-03-13T04:51:19.221Z,99.90
2023-03-13T04:54:14.084Z,99.90
2023-03-13T04:57:22.757Z,99.90
2023-03-13T05:00:22.895Z,99.90
2023-03-13T05:03:25.604Z,99.90
2023-03-13T05:06:31.205Z,99.90
2023-03-13T05:09:46.317Z,99.90
2023-03-13T05:12:51.770Z,99.90
2023-03-13T05:15:57.590Z,99.90
2023-03-13T05:19:03.241Z,99.90
2023-03-13T05:22:09.380Z,99.90
2023-03-13T05:25:08.206Z,99.90
2023-03-13T05:28:09.246Z,99.90
2023-03-13T05:30:54.928Z,99.90
2023-03-13T05:33:59.569Z,99.90
2023-03-13T05:37:14.292Z,99.90
2023-03-13T05:40:04.358Z,99.90
2023-03-13T05:42:59.612Z,99.90
2023-03-13T05:46:08.329Z,99.90
2023-03-13T05:49:08.911Z,99.90
2023-03-13T05:52:15.133Z,99.90
2023-03-13T05:55:03.766Z,99.90
2023-03-13T05:58:08.316Z,99.90
2023-03-13T06:01:10.517Z,99.90
2023-03-13T06:04:06.502Z,99.90
2023-03-13T06:06:54.803Z,99.90
2023-03-13T06:09:41.006Z,99.90
2023-03-13T06:12:27.384Z,99.90
2023-03-13T06:15:13.062Z,99.90
2023-03-13T06:18:17.458Z,99.90
2023-03-13T06:21:03.193Z,99.90
2023-03-13T06:23:49.115Z,99.90
2023-03-13T06:26:35.173Z,99.90
2023-03-13T06:29:21.399Z,99.90
2023-03-13T06:32:07.409Z,99.90
2023-03-13T06:34:53.133Z,99.90
2023-03-13T06:37:38.968Z,99.90
2023-03-13T06:40:24.761Z,99.90
2023-03-13T06:43:10.298Z,99.90
2023-03-13T06:45:55.874Z,99.90
2023-03-13T06:48:41.452Z,99.90
2023-03-13T06:51:26.989Z,99.90
2023-03-13T06:54:12.480Z,99.90
2023-03-13T06:56:57.930Z,99.90
2023-03-13T06:59:43.437Z,99.90
2023-03-13T07:02:29.023Z,99.90
2023-03-13T07:05:14.681Z,99.90
2023-03-13T07:08:00.448Z,99.90
2023-03-13T07:10:48.576Z,99.90
2023-03-13T07:13:34.435Z,99.90
2023-03-13T07:16:20.306Z,99.90
2023-03-13T07:19:06.254Z,99.90
2023-03-13T07:21:52.999Z,99.90
2023-03-13T07:24:38.746Z,99.90
2023-03-13T07:27:24.364Z,99.90
2023-03-13T07:30:10.628Z,99.90
2023-03-13T07:32:56.056Z,99.90
2023-03-13T07:35:41.849Z,99.90
2023-03-13T07:38:27.946Z,99.90
2023-03-13T07:41:13.785Z,99.90
2023-03-13T07:43:59.752Z,99.90
2023-03-13T07:46:48.402Z,99.90
2023-03-13T07:49:39.273Z,99.90
2023-03-13T07:52:26.434Z,99.90
2023-03-13T07:55:12.471Z,99.90
2023-03-13T07:57:58.572Z,99.90
2023-03-13T08:00:44.025Z,99.90
2023-03-13T08:03:30.255Z,99.90
2023-03-13T08:06:19.645Z,99.90
2023-03-13T08:09:05.713Z,99.90
2023-03-13T08:11:51.379Z,99.90
2023-03-13T08:14:37.023Z,99.90
2023-03-13T08:17:22.506Z,99.90
2023-03-13T08:20:10.065Z,99.90
2023-03-13T08:22:57.020Z,99.90
2023-03-13T08:25:42.719Z,99.90
2023-03-13T08:28:28.538Z,99.90
2023-03-13T08:31:15.480Z,99.90
2023-03-13T08:34:02.037Z,99.90
2023-03-13T08:36:48.028Z,99.90
2023-03-13T08:39:33.926Z,99.90
2023-03-13T08:42:20.081Z,99.90
2023-03-13T08:45:06.691Z,98.90
2023-03-13T08:47:55.257Z,99.20
2023-03-13T08:50:40.926Z,98.20
2023-03-13T08:53:26.503Z,98.40
2023-03-13T08:56:15.685Z,97.70
2023-03-13T08:59:03.444Z,97.20
2023-03-13T09:01:49.061Z,96.80
2023-03-13T09:04:34.330Z,96.40
2023-03-13T09:07:19.920Z,96.70
2023-03-13T09:10:06.051Z,96.10
2023-03-13T09:12:51.586Z,95.30
2023-03-13T09:15:38.134Z,95.70
2023-03-13T09:18:24.632Z,95.40
2023-03-13T09:21:14.339Z,95.60
2023-03-13T09:24:00.795Z,95.60
2023-03-13T09:27:00.446Z,96.30
2023-03-13T09:29:46.827Z,95.90
2023-03-13T09:32:32.491Z,94.60
2023-03-13T09:35:17.874Z,94.50
2023-03-13T09:38:03.534Z,93.90
2023-03-13T09:41:05.292Z,93.70
2023-03-13T09:43:57.115Z,94.10
2023-03-13T09:47:21.183Z,93.70
2023-03-13T09:50:18.785Z,93.50
2023-03-13T09:53:14.093Z,92.90
2023-03-13T09:56:00.311Z,92.60
2023-03-13T09:58:56.076Z,92.40
2023-03-13T10:01:43.820Z,91.20
2023-03-13T10:04:42.899Z,91.20
2023-03-13T10:07:28.628Z,90.40
2023-03-13T10:10:34.378Z,90.30
2023-03-13T10:13:27.005Z,88.30
2023-03-13T10:16:20.669Z,88.20
2023-03-13T10:19:16.050Z,87.70
2023-03-13T10:22:09.989Z,89.40
2023-03-13T10:25:27.015Z,88.30
2023-03-13T10:28:16.457Z,88.20
2023-03-13T10:31:11.947Z,86.60
2023-03-13T10:34:13.049Z,88.30
2023-03-13T10:37:01.511Z,86.50
2023-03-13T10:39:47.101Z,86.40
2023-03-13T10:42:38.194Z,86.90
2023-03-13T10:45:25.310Z,84.40
2023-03-13T10:48:25.855Z,81.80
2023-03-13T10:51:22.636Z,83.40
2023-03-13T10:54:39.949Z,82.70
2023-03-13T10:57:25.659Z,82.20
2023-03-13T11:00:36.002Z,81.70
2023-03-13T11:03:33.372Z,81.60
2023-03-13T11:06:34.867Z,81.60
2023-03-13T11:09:20.618Z,81.60
2023-03-13T11:12:20.712Z,81.50
2023-03-13T11:15:17.015Z,81.00
2023-03-13T11:18:27.367Z,80.60
2023-03-13T11:21:23.549Z,79.80
2023-03-13T11:26:11.784Z,78.90
2023-03-13T11:29:36.161Z,75.40
2023-03-13T11:32:11.560Z,73.80
2023-03-13T11:34:44.209Z,69.50
2023-03-13T11:37:19.527Z,69.30
2023-03-13T11:39:55.871Z,69.30
2023-03-13T11:42:45.536Z,66.90
2023-03-13T11:45:12.289Z,66.50
2023-03-13T11:47:57.747Z,64.90
2023-03-13T11:50:48.255Z,66.40
2023-03-13T11:53:18.246Z,60.00
2023-03-13T11:56:08.125Z,61.50
2023-03-13T11:58:44.075Z,61.70
2023-03-13T12:01:13.881Z,58.00
2023-03-13T12:03:44.778Z,56.50
2023-03-13T12:06:28.382Z,57.70
2023-03-13T12:09:06.974Z,56.70
2023-03-13T12:11:43.541Z,56.00
2023-03-13T12:14:39.857Z,53.20
2023-03-13T12:17:08.960Z,52.00
2023-03-13T12:19:55.913Z,50.90
2023-03-13T12:22:47.930Z,50.80
2023-03-13T12:25:25.621Z,46.90
2023-03-13T12:28:11.454Z,44.90
2023-03-13T12:30:47.677Z,43.10
2023-03-13T12:33:29.736Z,39.50
2023-03-13T12:36:21.215Z,37.70
2023-03-13T12:39:00.563Z,36.80
2023-03-13T12:41:43.206Z,35.90
2023-03-13T12:44:18.809Z,35.30
2023-03-13T12:46:54.735Z,35.60
2023-03-13T12:49:43.639Z,35.90
2023-03-13T12:52:13.306Z,36.90
2023-03-13T12:54:59.112Z,35.60
2023-03-13T12:57:53.569Z,37.20
2023-03-13T13:00:24.960Z,37.00
2023-03-13T13:03:39.043Z,37.10
2023-03-13T13:06:15.080Z,39.40
2023-03-13T13:08:43.546Z,41.40
2023-03-13T13:11:43.755Z,40.90
2023-03-13T13:14:19.682Z,40.70
2023-03-13T13:16:55.816Z,41.40
2023-03-13T13:19:25.863Z,39.10
2023-03-13T13:22:30.390Z,37.50
2023-03-13T13:24:59.632Z,38.20
2023-03-13T13:27:32.752Z,36.20
2023-03-13T13:30:01.309Z,36.10
2023-03-13T13:32:42.119Z,36.20
2023-03-13T13:35:32.086Z,35.70
2023-03-13T13:38:18.928Z,39.00
2023-03-13T13:41:05.245Z,39.40
2023-03-13T13:43:37.532Z,35.40
2023-03-13T13:46:24.900Z,33.00
2023-03-13T13:49:16.013Z,31.40
2023-03-13T13:52:03.394Z,32.90
2023-03-13T13:54:46.976Z,33.20
2023-03-13T13:57:37.056Z,31.20
2023-03-13T14:00:23.921Z,33.30
2023-03-13T14:02:52.196Z,33.40
2023-03-13T14:05:27.110Z,32.80
2023-03-13T14:08:30.547Z,33.70
2023-03-13T14:11:23.908Z,36.50
2023-03-13T14:14:10.748Z,39.00
2023-03-13T14:16:38.916Z,41.40
2023-03-13T14:19:05.849Z,42.60
2023-03-13T14:21:34.658Z,42.70
2023-03-13T14:24:01.602Z,42.30
2023-03-13T14:26:30.302Z,43.90
2023-03-13T14:28:59.768Z,45.20
2023-03-13T14:31:32.085Z,44.50
2023-03-13T14:34:01.985Z,43.30
2023-03-13T14:36:29.410Z,39.20
2023-03-13T14:38:58.998Z,38.90
2023-03-13T14:41:28.576Z,38.40
2023-03-13T14:43:55.651Z,37.20
2023-03-13T14:46:34.766Z,36.90
2023-03-13T14:49:15.806Z,37.10
2023-03-13T14:51:42.904Z,38.60
2023-03-13T14:54:35.584Z,34.60
2023-03-13T14:57:23.298Z,33.40
2023-03-13T14:59:51.402Z,33.80
2023-03-13T15:02:24.336Z,33.80
2023-03-13T15:04:59.533Z,33.60
2023-03-13T15:07:38.815Z,34.20
2023-03-13T15:10:29.620Z,33.50
2023-03-13T15:12:56.536Z,34.90
2023-03-13T15:15:23.572Z,38.10
2023-03-13T15:17:50.564Z,41.10
2023-03-13T15:20:18.067Z,42.60
2023-03-13T15:22:46.498Z,43.70
2023-03-13T15:25:19.855Z,44.50
2023-03-13T15:27:48.521Z,44.70
2023-03-13T15:30:20.652Z,45.10
2023-03-13T15:32:48.014Z,44.80
2023-03-13T15:35:23.566Z,45.50
2023-03-13T15:37:50.837Z,45.70
2023-03-13T15:40:18.121Z,45.20
2023-03-13T15:42:45.169Z,46.20
2023-03-13T15:45:12.361Z,47.10
2023-03-13T15:47:39.172Z,47.80
2023-03-13T15:50:12.117Z,47.50
2023-03-13T15:52:38.970Z,45.00
2023-03-13T15:55:08.028Z,44.90
2023-03-13T15:57:38.741Z,45.30
2023-03-13T16:00:11.566Z,44.80
2023-03-13T16:02:38.473Z,45.70
2023-03-13T16:05:06.449Z,46.20
2023-03-13T16:07:34.385Z,45.70
2023-03-13T16:10:01.254Z,46.50
2023-03-13T16:12:28.116Z,46.30
2023-03-13T16:14:55.004Z,46.20
2023-03-13T16:17:22.603Z,46.50
2023-03-13T16:19:49.553Z,46.30
2023-03-13T16:22:17.394Z,46.70
2023-03-13T16:24:44.401Z,47.00
2023-03-13T16:27:19.792Z,47.50
2023-03-13T16:29:47.120Z,47.20
2023-03-13T16:32:18.732Z,46.70
2023-03-13T16:34:45.846Z,46.50
2023-03-13T16:37:18.215Z,46.50
2023-03-13T16:39:46.094Z,46.80
2023-03-13T16:42:13.204Z,46.80
2023-03-13T16:44:40.211Z,46.60
2023-03-13T16:47:35.549Z,46.90
2023-03-13T16:50:10.838Z,47.10
2023-03-13T16:52:37.737Z,47.00
2023-03-13T16:55:05.077Z,47.70
2023-03-13T16:57:32.525Z,47.60
2023-03-13T16:59:59.415Z,47.60
2023-03-13T17:02:28.356Z,47.50
2023-03-13T17:04:55.624Z,47.70
2023-03-13T17:07:24.995Z,47.60
2023-03-13T17:09:52.731Z,47.80
2023-03-13T17:12:19.843Z,48.10
2023-03-13T17:14:47.376Z,48.00
2023-03-13T17:17:21.109Z,48.50
2023-03-13T17:19:48.381Z,48.30
2023-03-13T17:22:17.793Z,48.50
2023-03-13T17:24:44.918Z,48.50
2023-03-13T17:27:16.579Z,48.80
2023-03-13T17:29:44.496Z,48.50
2023-03-13T17:32:11.907Z,48.50
2023-03-13T17:34:39.692Z,48.70
2023-03-13T17:37:15.907Z,48.60
2023-03-13T17:39:43.797Z,48.50
2023-03-13T17:42:10.971Z,49.20
2023-03-13T17:44:41.201Z,49.90
2023-03-13T17:47:16.556Z,50.00
2023-03-13T17:49:44.441Z,49.80
2023-03-13T17:52:18.371Z,51.00
2023-03-13T17:54:45.744Z,53.90
2023-03-13T17:57:22.906Z,55.60
2023-03-13T17:59:49.792Z,56.10
2023-03-13T18:02:18.103Z,56.40
2023-03-13T18:04:45.663Z,56.00
2023-03-13T18:07:15.356Z,55.90
2023-03-13T18:09:42.304Z,56.50
2023-03-13T18:12:11.652Z,56.40
2023-03-13T18:14:39.708Z,57.00
2023-03-13T18:17:17.789Z,57.10
2023-03-13T18:19:45.588Z,57.30
2023-03-13T18:22:15.623Z,58.10
2023-03-13T18:24:42.986Z,59.40
2023-03-13T18:27:18.728Z,60.50
2023-03-13T18:29:46.934Z,61.80
2023-03-13T18:32:16.255Z,63.40
2023-03-13T18:34:43.919Z,65.40
2023-03-13T18:37:31.166Z,65.90
2023-03-13T18:39:58.270Z,66.90
2023-03-13T18:42:25.797Z,67.40
2023-03-13T18:44:53.444Z,68.20
2023-03-13T18:47:23.603Z,68.20
2023-03-13T18:49:51.157Z,67.10
2023-03-13T18:52:18.257Z,66.20
2023-03-13T18:54:45.384Z,66.20
2023-03-13T18:57:14.821Z,66.60
2023-03-13T18:59:42.786Z,67.40
2023-03-13T19:02:15.620Z,67.70
2023-03-13T19:04:44.204Z,68.50
2023-03-13T19:07:16.563Z,69.30
2023-03-13T19:09:46.341Z,74.40
2023-03-13T19:12:15.391Z,85.40
2023-03-13T19:14:42.785Z,90.90
2023-03-13T19:17:24.546Z,94.00
2023-03-13T19:19:51.619Z,96.70
2023-03-13T19:22:18.683Z,99.20
2023-03-13T19:24:45.479Z,99.90
2023-03-13T19:27:14.736Z,99.90
2023-03-13T19:29:41.693Z,99.90
2023-03-13T19:32:16.791Z,99.90
2023-03-13T19:34:44.455Z,99.90
2023-03-13T19:37:16.099Z,99.90
2023-03-13T19:39:43.254Z,99.90
2023-03-13T19:42:10.277Z,99.90
2023-03-13T19:44:40.225Z,99.90
2023-03-13T19:47:07.492Z,99.90
2023-03-13T19:49:34.455Z,99.90
2023-03-13T19:52:01.414Z,99.90
2023-03-13T19:54:28.313Z,99.90
2023-03-13T19:56:55.164Z,99.90
2023-03-13T19:59:31.376Z,99.90
2023-03-13T20:01:59.605Z,99.90
2023-03-13T20:04:28.009Z,99.90
2023-03-13T20:06:55.149Z,99.90
2023-03-13T20:09:23.122Z,99.90
2023-03-13T20:11:50.074Z,99.90
2023-03-13T20:14:16.990Z,99.90
2023-03-13T20:16:45.468Z,99.90
2023-03-13T20:19:12.594Z,99.90
2023-03-13T20:21:41.186Z,99.90
2023-03-13T20:24:08.743Z,99.90
2023-03-13T20:26:36.257Z,99.90
2023-03-13T20:29:03.298Z,99.90
2023-03-13T20:31:31.947Z,99.90
2023-03-13T20:33:59.771Z,99.90
2023-03-13T20:36:27.443Z,99.90
2023-03-13T20:38:54.632Z,99.90
2023-03-13T20:41:25.058Z,99.90
2023-03-13T20:43:52.433Z,99.90
2023-03-13T20:46:20.228Z,99.90
2023-03-13T20:48:47.292Z,99.90
2023-03-13T20:51:14.737Z,99.90
2023-03-13T20:53:42.710Z,99.90
2023-03-13T20:56:10.750Z,99.90
2023-03-13T20:58:38.425Z,99.90
2023-03-13T21:01:06.494Z,99.90
2023-03-13T21:03:35.493Z,99.90
2023-03-13T21:06:13.892Z,99.90
2023-03-13T21:08:42.463Z,99.90
2023-03-13T21:11:27.362Z,99.90
2023-03-13T21:13:54.168Z,99.90
2023-03-13T21:16:21.225Z,99.90
2023-03-13T21:18:48.544Z,99.90
2023-03-13T21:21:19.503Z,99.90
2023-03-13T21:23:46.815Z,99.90
2023-03-13T21:26:14.550Z,99.90
2023-03-13T21:28:41.674Z,99.90
2023-03-13T21:31:16.835Z,99.90
2023-03-13T21:33:44.913Z,99.90
2023-03-13T21:36:13.902Z,99.90
2023-03-13T21:38:40.816Z,99.90
2023-03-13T21:41:09.481Z,99.90
2023-03-13T21:43:37.430Z,99.90
2023-03-13T21:46:04.647Z,99.90
2023-03-13T21:48:31.620Z,99.90
2023-03-13T21:50:58.563Z,99.90
2023-03-13T21:53:25.508Z,99.90
2023-03-13T21:55:52.583Z,99.90
2023-03-13T21:58:19.559Z,99.90
2023-03-13T22:00:46.524Z,99.90
2023-03-13T22:03:13.801Z,99.90
2023-03-13T22:05:42.466Z,99.90
2023-03-13T22:08:09.593Z,99.90
2023-03-13T22:10:40.514Z,99.90
2023-03-13T22:13:09.611Z,99.90
2023-03-13T22:15:36.528Z,99.90
2023-03-13T22:18:03.519Z,99.90
2023-03-13T22:20:30.362Z,99.90
2023-03-13T22:22:57.341Z,99.90
2023-03-13T22:25:24.285Z,99.90
2023-03-13T22:27:51.307Z,99.90
2023-03-13T22:30:18.496Z,99.90
2023-03-13T22:32:45.642Z,99.90
2023-03-13T22:35:12.703Z,99.90
2023-03-13T22:37:39.679Z,99.90
2023-03-13T22:40:07.308Z,99.90
2023-03-13T22:42:34.414Z,99.90
2023-03-13T22:45:05.458Z,99.90
2023-03-13T22:47:32.703Z,99.90
2023-03-13T22:49:59.591Z,99.90
2023-03-13T22:52:30.777Z,99.90
2023-03-13T22:54:58.504Z,99.90
2023-03-13T22:57:25.412Z,99.90
2023-03-13T22:59:53.905Z,99.90
2023-03-13T23:02:20.950Z,99.90
2023-03-13T23:04:47.974Z,99.90
2023-03-13T23:07:14.863Z,99.90
2023-03-13T23:09:41.709Z,99.90
2023-03-13T23:12:08.655Z,99.90
2023-03-13T23:14:35.548Z,99.90
2023-03-13T23:17:02.547Z,99.90
2023-03-13T23:19:29.538Z,99.90
2023-03-13T23:21:56.441Z,99.90
2023-03-13T23:24:23.339Z,99.90
2023-03-13T23:26:50.197Z,99.90
2023-03-13T23:29:17.063Z,99.90
2023-03-13T23:31:43.962Z,99.90
2023-03-13T23:34:10.910Z,99.90
2023-03-13T23:36:37.781Z,99.90
2023-03-13T23:39:04.789Z,99.90
2023-03-13T23:41:31.665Z,99.90
2023-03-13T23:44:01.168Z,99.90
2023-03-13T23:46:28.200Z,99.90
2023-03-13T23:48:56.761Z,99.90
2023-03-13T23:51:25.282Z,99.90
2023-03-13T23:53:52.641Z,99.90
2023-03-13T23:56:19.665Z,99.90
2023-03-13T23:58:46.533Z,99.90
